createdAt,value
2023-03-04T00:00:32.965Z,88.00
2023-03-04T00:03:00.693Z,88.60
2023-03-04T00:05:28.513Z,88.69
2023-03-04T00:07:56.038Z,88.25
2023-03-04T00:10:25.560Z,88.40
2023-03-04T00:12:53.129Z,87.96
2023-03-04T00:15:20.701Z,89.08
2023-03-04T00:17:48.257Z,88.92
2023-03-04T00:20:15.800Z,88.89
2023-03-04T00:22:43.410Z,88.39
2023-03-04T00:25:11.013Z,88.41
2023-03-04T00:27:39.991Z,88.39
2023-03-04T00:30:08.940Z,88.88
2023-03-04T00:32:36.617Z,89.39
2023-03-04T00:35:05.151Z,88.30
2023-03-04T00:37:32.704Z,88.14
2023-03-04T00:40:00.512Z,88.61
2023-03-04T00:42:28.211Z,88.37
2023-03-04T00:44:57.175Z,89.47
2023-03-04T00:47:24.836Z,88.93
2023-03-04T00:49:52.472Z,88.70
2023-03-04T00:52:20.110Z,88.91
2023-03-04T00:54:47.747Z,89.19
2023-03-04T00:57:15.419Z,88.85
2023-03-04T00:59:43.753Z,88.89
2023-03-04T01:02:13.316Z,89.02
2023-03-04T01:04:41.791Z,89.32
2023-03-04T01:07:09.688Z,88.90
2023-03-04T01:09:37.284Z,89.78
2023-03-04T01:12:05.186Z,89.89
2023-03-04T01:14:32.829Z,90.47
2023-03-04T01:17:00.700Z,90.91
2023-03-04T01:19:29.644Z,90.80
2023-03-04T01:21:57.585Z,89.89
2023-03-04T01:24:25.212Z,90.72
2023-03-04T01:26:52.953Z,91.09
2023-03-04T01:29:23.137Z,89.77
2023-03-04T01:31:50.826Z,90.58
2023-03-04T01:34:21.156Z,90.11
2023-03-04T01:36:50.061Z,90.20
2023-03-04T01:39:19.424Z,90.80
2023-03-04T01:41:47.321Z,91.14
2023-03-04T01:44:15.234Z,90.00
2023-03-04T01:46:47.596Z,90.46
2023-03-04T01:49:17.084Z,90.69
2023-03-04T01:51:46.579Z,91.61
2023-03-04T01:54:15.525Z,91.11
2023-03-04T01:56:46.631Z,91.03
2023-03-04T01:59:16.412Z,91.02
2023-03-04T02:01:45.975Z,91.67
2023-03-04T02:04:14.401Z,92.07
2023-03-04T02:06:42.539Z,91.10
2023-03-04T02:09:11.015Z,91.85
2023-03-04T02:11:40.654Z,92.29
2023-03-04T02:14:08.722Z,91.16
2023-03-04T02:16:36.389Z,91.71
2023-03-04T02:19:08.288Z,92.55
2023-03-04T02:21:36.016Z,92.78
2023-03-04T02:24:15.142Z,92.88
2023-03-04T02:26:46.845Z,93.25
2023-03-04T02:29:16.876Z,93.20
2023-03-04T02:31:46.533Z,92.25
2023-03-04T02:34:17.155Z,92.23
2023-03-04T02:36:46.482Z,93.07
2023-03-04T02:39:26.230Z,92.17
2023-03-04T02:41:57.202Z,93.15
2023-03-04T02:44:27.785Z,93.63
2023-03-04T02:46:56.782Z,92.73
2023-03-04T02:49:28.909Z,92.73
2023-03-04T02:52:01.526Z,92.16
2023-03-04T02:54:29.421Z,92.75
2023-03-04T02:57:02.071Z,92.78
2023-03-04T02:59:29.982Z,92.60
2023-03-04T03:01:58.056Z,92.93
2023-03-04T03:04:26.989Z,93.85
2023-03-04T03:06:55.715Z,92.86
2023-03-04T03:09:23.336Z,93.53
2023-03-04T03:11:51.147Z,94.25
2023-03-04T03:14:20.346Z,93.34
2023-03-04T03:16:48.219Z,93.61
2023-03-04T03:19:15.923Z,93.67
2023-03-04T03:21:43.785Z,93.35
2023-03-04T03:24:12.173Z,93.11
2023-03-04T03:26:40.880Z,93.37
2023-03-04T03:29:09.022Z,93.58
2023-03-04T03:31:38.076Z,92.44
2023-03-04T03:34:05.633Z,92.51
2023-03-04T03:36:33.337Z,93.71
2023-03-04T03:39:00.919Z,92.78
2023-03-04T03:41:28.505Z,93.07
2023-03-04T03:43:56.930Z,93.76
2023-03-04T03:46:24.548Z,93.29
2023-03-04T03:48:53.495Z,93.92
2023-03-04T03:51:21.184Z,94.06
2023-03-04T03:53:48.783Z,93.29
2023-03-04T03:56:16.452Z,93.64
2023-03-04T03:58:44.201Z,93.85
2023-03-04T04:01:11.818Z,93.22
2023-03-04T04:03:39.422Z,93.86
2023-03-04T04:06:08.734Z,93.78
2023-03-04T04:08:36.334Z,93.93
2023-03-04T04:11:03.954Z,94.15
2023-03-04T04:13:31.783Z,93.93
2023-03-04T04:15:59.478Z,94.42
2023-03-04T04:18:27.123Z,93.65
2023-03-04T04:20:54.850Z,93.47
2023-03-04T04:23:24.393Z,93.81
2023-03-04T04:25:52.150Z,94.14
2023-03-04T04:28:19.757Z,93.82
2023-03-04T04:30:47.500Z,94.31
2023-03-04T04:33:15.159Z,93.50
2023-03-04T04:35:42.982Z,93.38
2023-03-04T04:38:11.222Z,93.42
2023-03-04T04:40:40.082Z,93.62
2023-03-04T04:43:07.800Z,93.51
2023-03-04T04:45:35.912Z,93.17
2023-03-04T04:48:03.514Z,94.24
2023-03-04T04:50:32.952Z,93.42
2023-03-04T04:53:00.772Z,93.87
2023-03-04T04:55:28.418Z,94.17
2023-03-04T04:57:57.386Z,94.02
2023-03-04T05:00:25.025Z,93.81
2023-03-04T05:02:52.624Z,93.96
2023-03-04T05:05:20.271Z,93.48
2023-03-04T05:07:47.795Z,94.29
2023-03-04T05:10:15.402Z,93.60
2023-03-04T05:12:45.495Z,93.59
2023-03-04T05:15:14.489Z,93.71
2023-03-04T05:17:42.184Z,93.83
2023-03-04T05:20:11.025Z,93.65
2023-03-04T05:22:38.614Z,94.41
2023-03-04T05:25:07.078Z,93.77
2023-03-04T05:27:34.882Z,93.80
2023-03-04T05:30:02.462Z,93.81
2023-03-04T05:32:31.453Z,93.43
2023-03-04T05:34:59.005Z,93.73
2023-03-04T05:37:26.694Z,94.66
2023-03-04T05:39:54.256Z,94.04
2023-03-04T05:42:21.935Z,93.92
2023-03-04T05:44:49.560Z,93.95
2023-03-04T05:47:17.222Z,93.90
2023-03-04T05:49:46.164Z,93.80
2023-03-04T05:52:13.745Z,94.24
2023-03-04T05:54:41.373Z,94.05
2023-03-04T05:57:08.975Z,94.21
2023-03-04T05:59:36.656Z,93.78
2023-03-04T06:02:04.952Z,93.30
2023-03-04T06:04:32.604Z,93.30
2023-03-04T06:07:01.574Z,93.75
2023-03-04T06:09:29.102Z,93.53
2023-03-04T06:11:56.663Z,93.66
2023-03-04T06:14:24.353Z,93.77
2023-03-04T06:16:51.974Z,93.64
2023-03-04T06:19:19.805Z,94.04
2023-03-04T06:21:48.096Z,93.56
2023-03-04T06:24:17.131Z,93.87
2023-03-04T06:26:44.707Z,93.47
2023-03-04T06:29:12.879Z,92.94
2023-03-04T06:31:41.789Z,93.86
2023-03-04T06:34:09.794Z,96.87
2023-03-04T06:36:37.452Z,98.66
2023-03-04T06:39:05.642Z,98.05
2023-03-04T06:41:35.193Z,96.02
2023-03-04T06:44:02.885Z,92.79
2023-03-04T06:46:30.666Z,91.54
2023-03-04T06:48:58.338Z,90.41
2023-03-04T06:51:26.028Z,90.56
2023-03-04T06:53:53.615Z,90.06
2023-03-04T06:56:21.264Z,88.96
2023-03-04T06:58:50.173Z,89.70
2023-03-04T07:01:19.767Z,89.50
2023-03-04T07:03:48.712Z,89.35
2023-03-04T07:06:18.329Z,89.87
2023-03-04T07:08:46.684Z,89.44
2023-03-04T07:11:14.957Z,88.83
2023-03-04T07:13:42.554Z,87.99
2023-03-04T07:16:14.078Z,87.96
2023-03-04T07:18:41.817Z,88.05
2023-03-04T07:21:09.646Z,88.42
2023-03-04T07:23:38.708Z,88.49
2023-03-04T07:26:07.116Z,87.96
2023-03-04T07:28:35.110Z,88.11
2023-03-04T07:31:11.843Z,89.58
2023-03-04T07:33:39.374Z,87.33
2023-03-04T07:36:07.266Z,87.87
2023-03-04T07:38:34.804Z,87.11
2023-03-04T07:41:02.935Z,86.84
2023-03-04T07:43:30.519Z,86.44
2023-03-04T07:46:01.575Z,86.77
2023-03-04T07:48:30.625Z,88.43
2023-03-04T07:51:06.921Z,86.81
2023-03-04T07:53:34.936Z,85.74
2023-03-04T07:56:02.929Z,85.32
2023-03-04T07:58:30.827Z,84.78
2023-03-04T08:00:58.500Z,84.69
2023-03-04T08:03:26.244Z,84.29
2023-03-04T08:05:55.182Z,85.55
2023-03-04T08:08:22.698Z,85.75
2023-03-04T08:10:50.237Z,84.85
2023-03-04T08:13:17.745Z,85.23
2023-03-04T08:15:45.316Z,85.76
2023-03-04T08:18:12.922Z,85.03
2023-03-04T08:20:43.041Z,85.58
2023-03-04T08:23:12.072Z,84.92
2023-03-04T08:25:40.453Z,84.88
2023-03-04T08:28:08.837Z,84.72
2023-03-04T08:30:37.501Z,84.70
2023-03-04T08:33:05.171Z,84.34
2023-03-04T08:35:34.984Z,84.79
2023-03-04T08:38:02.682Z,84.75
2023-03-04T08:40:31.562Z,84.60
2023-03-04T08:42:59.116Z,85.27
2023-03-04T08:45:26.729Z,84.97
2023-03-04T08:47:54.360Z,85.01
2023-03-04T08:50:22.665Z,84.66
2023-03-04T08:52:50.381Z,84.47
2023-03-04T08:55:18.134Z,84.63
2023-03-04T08:57:47.124Z,84.16
2023-03-04T09:00:15.564Z,83.27
2023-03-04T09:02:43.133Z,82.94
2023-03-04T09:05:10.858Z,82.49
2023-03-04T09:07:38.359Z,83.45
2023-03-04T09:10:07.235Z,83.07
2023-03-04T09:12:34.762Z,82.82
2023-03-04T09:15:11.485Z,81.84
2023-03-04T09:17:40.060Z,82.51
2023-03-04T09:20:10.218Z,81.57
2023-03-04T09:22:37.870Z,81.20
2023-03-04T09:25:10.365Z,81.00
2023-03-04T09:27:39.781Z,80.11
2023-03-04T09:30:10.430Z,79.89
2023-03-04T09:32:38.087Z,80.69
2023-03-04T09:35:07.044Z,78.80
2023-03-04T09:37:34.864Z,78.65
2023-03-04T09:40:02.726Z,79.25
2023-03-04T09:42:37.744Z,78.17
2023-03-04T09:45:08.348Z,77.42
2023-03-04T09:47:39.098Z,76.30
2023-03-04T09:50:10.163Z,75.81
2023-03-04T09:52:49.837Z,75.24
2023-03-04T09:55:25.229Z,74.54
2023-03-04T09:57:57.845Z,74.22
2023-03-04T10:00:31.748Z,74.10
2023-03-04T10:03:13.167Z,71.40
2023-03-04T10:05:45.241Z,71.31
2023-03-04T10:08:34.185Z,69.22
2023-03-04T10:11:04.759Z,69.96
2023-03-04T10:13:38.792Z,68.15
2023-03-04T10:16:10.251Z,65.95
2023-03-04T10:18:42.413Z,66.65
2023-03-04T10:21:21.074Z,65.16
2023-03-04T10:23:50.624Z,63.58
2023-03-04T10:26:21.508Z,62.90
2023-03-04T10:28:49.790Z,62.43
2023-03-04T10:31:22.856Z,63.14
2023-03-04T10:33:51.794Z,64.29
2023-03-04T10:36:37.532Z,65.06
2023-03-04T10:39:10.712Z,66.77
2023-03-04T10:41:42.841Z,66.86
2023-03-04T10:44:17.296Z,64.68
2023-03-04T10:46:46.459Z,65.40
2023-03-04T10:49:17.276Z,65.91
2023-03-04T10:51:46.487Z,66.49
2023-03-04T10:54:25.092Z,64.12
2023-03-04T10:57:01.268Z,65.16
2023-03-04T10:59:35.452Z,64.83
2023-03-04T11:02:15.856Z,65.33
2023-03-04T11:04:51.340Z,65.41
2023-03-04T11:07:19.000Z,66.76
2023-03-04T11:09:46.674Z,65.13
2023-03-04T11:12:16.857Z,66.97
2023-03-04T11:14:49.048Z,66.63
2023-03-04T11:17:24.985Z,66.53
2023-03-04T11:19:58.935Z,66.01
2023-03-04T11:22:29.402Z,66.98
2023-03-04T11:25:02.103Z,66.92
2023-03-04T11:27:39.197Z,67.07
2023-03-04T11:30:22.869Z,66.22
2023-03-04T11:32:52.300Z,66.16
2023-03-04T11:35:27.819Z,66.44
2023-03-04T11:38:02.786Z,68.59
2023-03-04T11:40:37.254Z,66.80
2023-03-04T11:43:12.276Z,66.26
2023-03-04T11:46:05.576Z,65.22
2023-03-04T11:48:45.502Z,66.22
2023-03-04T11:51:24.523Z,65.84
2023-03-04T11:54:04.418Z,65.01
2023-03-04T11:56:36.030Z,65.57
2023-03-04T11:59:27.038Z,65.93
2023-03-04T12:02:12.978Z,66.84
2023-03-04T12:05:06.106Z,65.88
2023-03-04T12:07:52.472Z,64.39
2023-03-04T12:10:29.194Z,64.90
2023-03-04T12:13:22.846Z,65.22
2023-03-04T12:15:59.997Z,64.44
2023-03-04T12:18:40.778Z,65.04
2023-03-04T12:21:23.672Z,65.31
2023-03-04T12:24:27.392Z,64.84
2023-03-04T12:27:01.484Z,64.18
2023-03-04T12:29:40.217Z,64.93
2023-03-04T12:32:18.699Z,64.62
2023-03-04T12:34:58.489Z,64.35
2023-03-04T12:37:45.615Z,64.65
2023-03-04T12:40:43.160Z,63.65
2023-03-04T12:43:31.514Z,64.58
2023-03-04T12:46:09.279Z,65.37
2023-03-04T12:48:40.211Z,64.56
2023-03-04T12:51:22.797Z,64.57
2023-03-04T12:54:01.824Z,63.16
2023-03-04T12:56:37.916Z,63.94
2023-03-04T12:59:06.940Z,64.90
2023-03-04T13:01:41.230Z,65.35
2023-03-04T13:04:15.686Z,64.37
2023-03-04T13:06:48.801Z,64.52
2023-03-04T13:09:25.416Z,63.76
2023-03-04T13:12:03.730Z,63.31
2023-03-04T13:14:36.004Z,64.09
2023-03-04T13:17:25.062Z,63.17
2023-03-04T13:19:57.089Z,63.55
2023-03-04T13:22:36.285Z,63.56
2023-03-04T13:25:31.870Z,64.11
2023-03-04T13:28:16.167Z,63.13
2023-03-04T13:31:07.688Z,63.27
2023-03-04T13:34:04.396Z,63.64
2023-03-04T13:37:00.176Z,63.91
2023-03-04T13:39:33.134Z,64.38
2023-03-04T13:42:01.309Z,64.06
2023-03-04T13:45:05.826Z,65.49
2023-03-04T13:47:49.315Z,64.22
2023-03-04T13:50:25.114Z,63.93
2023-03-04T13:52:53.038Z,63.40
2023-03-04T13:55:37.020Z,63.84
2023-03-04T13:58:18.178Z,64.29
2023-03-04T14:00:50.910Z,64.79
2023-03-04T14:03:25.684Z,63.41
2023-03-04T14:06:16.918Z,63.29
2023-03-04T14:08:45.205Z,62.88
2023-03-04T14:11:15.137Z,63.45
2023-03-04T14:13:43.421Z,63.26
2023-03-04T14:16:11.153Z,64.09
2023-03-04T14:18:41.234Z,64.02
2023-03-04T14:21:08.744Z,62.89
2023-03-04T14:23:37.204Z,62.47
2023-03-04T14:26:07.692Z,63.81
2023-03-04T14:28:43.919Z,64.86
2023-03-04T14:31:17.470Z,64.23
2023-03-04T14:33:49.122Z,63.47
2023-03-04T14:36:21.013Z,64.80
2023-03-04T14:38:54.705Z,64.27
2023-03-04T14:41:26.971Z,64.22
2023-03-04T14:44:01.275Z,64.96
2023-03-04T14:46:35.167Z,64.10
2023-03-04T14:49:04.604Z,64.07
2023-03-04T14:51:38.593Z,65.03
2023-03-04T14:54:06.684Z,65.35
2023-03-04T14:56:36.462Z,64.63
2023-03-04T14:59:04.356Z,65.35
2023-03-04T15:01:34.652Z,66.62
2023-03-04T15:04:05.732Z,65.98
2023-03-04T15:06:35.175Z,65.21
2023-03-04T15:09:05.857Z,65.38
2023-03-04T15:11:47.949Z,65.94
2023-03-04T15:14:41.839Z,65.85
2023-03-04T15:17:22.135Z,65.12
2023-03-04T15:20:00.665Z,66.18
2023-03-04T15:22:28.275Z,66.17
2023-03-04T15:24:56.453Z,66.74
2023-03-04T15:27:26.338Z,65.96
2023-03-04T15:29:56.051Z,66.68
2023-03-04T15:32:24.245Z,66.69
2023-03-04T15:34:51.829Z,67.24
2023-03-04T15:37:24.076Z,65.77
2023-03-04T15:39:52.524Z,66.32
2023-03-04T15:42:20.690Z,66.56
2023-03-04T15:44:48.378Z,67.07
2023-03-04T15:47:15.954Z,66.73
2023-03-04T15:49:47.242Z,65.99
2023-03-04T15:52:18.848Z,67.32
2023-03-04T15:54:48.996Z,66.91
2023-03-04T15:57:22.286Z,66.93
2023-03-04T15:59:49.918Z,66.98
2023-03-04T16:02:21.578Z,66.19
2023-03-04T16:04:49.150Z,67.17
2023-03-04T16:07:19.554Z,66.87
2023-03-04T16:09:53.299Z,66.78
2023-03-04T16:12:20.934Z,67.00
2023-03-04T16:14:49.191Z,67.17
2023-03-04T16:17:16.921Z,67.91
2023-03-04T16:19:44.569Z,68.69
2023-03-04T16:22:14.444Z,67.98
2023-03-04T16:24:42.177Z,67.78
2023-03-04T16:27:14.147Z,68.15
2023-03-04T16:29:42.247Z,67.85
2023-03-04T16:32:10.116Z,67.29
2023-03-04T16:34:37.893Z,67.51
2023-03-04T16:37:12.514Z,68.45
2023-03-04T16:39:44.008Z,67.68
2023-03-04T16:42:18.842Z,67.42
2023-03-04T16:44:46.712Z,67.55
2023-03-04T16:47:14.333Z,68.66
2023-03-04T16:49:41.917Z,67.99
2023-03-04T16:52:21.212Z,69.04
2023-03-04T16:54:49.764Z,68.19
2023-03-04T16:57:18.796Z,68.52
2023-03-04T16:59:46.926Z,69.64
2023-03-04T17:02:16.193Z,68.64
2023-03-04T17:04:44.663Z,68.29
2023-03-04T17:07:13.007Z,68.68
2023-03-04T17:09:41.098Z,68.88
2023-03-04T17:12:11.850Z,68.91
2023-03-04T17:14:41.195Z,68.31
2023-03-04T17:17:08.984Z,69.47
2023-03-04T17:19:36.688Z,68.72
2023-03-04T17:22:04.447Z,69.62
2023-03-04T17:24:32.392Z,68.79
2023-03-04T17:27:00.025Z,68.68
2023-03-04T17:29:27.686Z,69.25
2023-03-04T17:31:56.568Z,69.19
2023-03-04T17:34:24.216Z,70.52
2023-03-04T17:36:51.765Z,71.03
2023-03-04T17:39:19.455Z,70.73
2023-03-04T17:41:47.271Z,71.24
2023-03-04T17:44:15.653Z,70.47
2023-03-04T17:46:43.405Z,70.99
2023-03-04T17:49:13.033Z,70.40
2023-03-04T17:51:41.637Z,69.93
2023-03-04T17:54:11.091Z,70.19
2023-03-04T17:56:40.564Z,69.73
2023-03-04T17:59:09.907Z,70.89
2023-03-04T18:01:37.543Z,71.20
2023-03-04T18:04:05.544Z,70.30
2023-03-04T18:06:34.448Z,71.11
2023-03-04T18:09:02.062Z,70.37
2023-03-04T18:11:30.968Z,70.64
2023-03-04T18:13:58.722Z,70.79
2023-03-04T18:16:27.099Z,71.12
2023-03-04T18:18:57.635Z,70.93
2023-03-04T18:21:26.130Z,70.95
2023-03-04T18:23:55.399Z,70.72
2023-03-04T18:26:23.571Z,70.76
2023-03-04T18:28:51.467Z,71.50
2023-03-04T18:31:19.739Z,71.68
2023-03-04T18:33:47.891Z,72.16
2023-03-04T18:36:16.117Z,72.83
2023-03-04T18:38:43.830Z,73.52
2023-03-04T18:41:14.682Z,72.52
2023-03-04T18:43:42.715Z,72.91
2023-03-04T18:46:12.749Z,71.45
2023-03-04T18:48:44.368Z,72.51
2023-03-04T18:51:12.214Z,72.20
2023-03-04T18:53:40.242Z,72.51
2023-03-04T18:56:12.581Z,70.96
2023-03-04T18:58:44.753Z,70.78
2023-03-04T19:01:14.958Z,71.39
2023-03-04T19:03:43.277Z,70.98
2023-03-04T19:06:11.325Z,72.05
2023-03-04T19:08:39.347Z,72.17
2023-03-04T19:11:06.992Z,71.24
2023-03-04T19:13:35.052Z,71.37
2023-03-04T19:16:04.042Z,72.08
2023-03-04T19:18:31.600Z,71.50
2023-03-04T19:21:00.510Z,71.58
2023-03-04T19:23:29.209Z,71.37
2023-03-04T19:25:56.906Z,71.66
2023-03-04T19:28:24.912Z,72.08
2023-03-04T19:30:53.805Z,72.23
2023-03-04T19:33:22.749Z,72.34
2023-03-04T19:35:50.442Z,72.71
2023-03-04T19:38:18.048Z,71.98
2023-03-04T19:40:46.731Z,72.24
2023-03-04T19:43:14.750Z,71.88
2023-03-04T19:45:42.663Z,72.29
2023-03-04T19:48:10.301Z,72.39
2023-03-04T19:50:39.234Z,72.86
2023-03-04T19:53:06.803Z,73.55
2023-03-04T19:55:37.879Z,73.54
2023-03-04T19:58:05.440Z,73.10
2023-03-04T20:00:33.067Z,73.13
2023-03-04T20:03:01.681Z,78.55
2023-03-04T20:05:29.352Z,80.79
2023-03-04T20:07:58.215Z,83.38
2023-03-04T20:10:25.840Z,80.47
2023-03-04T20:12:55.325Z,78.07
2023-03-04T20:15:22.981Z,72.76
2023-03-04T20:17:50.546Z,73.57
2023-03-04T20:20:18.495Z,72.89
2023-03-04T20:22:46.248Z,72.83
2023-03-04T20:25:15.107Z,73.81
2023-03-04T20:27:43.901Z,73.21
2023-03-04T20:30:12.765Z,74.28
2023-03-04T20:32:40.376Z,74.07
2023-03-04T20:35:13.859Z,73.92
2023-03-04T20:37:42.373Z,72.97
2023-03-04T20:40:12.132Z,73.45
2023-03-04T20:42:41.263Z,74.27
2023-03-04T20:45:09.608Z,74.90
2023-03-04T20:47:39.532Z,75.32
2023-03-04T20:50:07.762Z,75.53
2023-03-04T20:52:35.395Z,75.27
2023-03-04T20:55:03.020Z,76.23
2023-03-04T20:57:31.198Z,75.71
2023-03-04T21:00:00.145Z,74.72
2023-03-04T21:02:27.712Z,75.36
2023-03-04T21:04:55.565Z,76.06
2023-03-04T21:07:24.284Z,75.96
2023-03-04T21:09:51.849Z,77.35
2023-03-04T21:12:19.492Z,76.76
2023-03-04T21:14:47.500Z,76.90
2023-03-04T21:17:16.667Z,76.29
2023-03-04T21:19:44.309Z,76.65
2023-03-04T21:22:15.968Z,76.15
2023-03-04T21:24:45.339Z,75.48
2023-03-04T21:27:13.484Z,75.02
2023-03-04T21:29:41.212Z,76.57
2023-03-04T21:32:23.712Z,76.35
2023-03-04T21:34:54.788Z,76.79
2023-03-04T21:37:23.905Z,77.08
2023-03-04T21:39:51.819Z,76.63
2023-03-04T21:42:19.957Z,76.19
2023-03-04T21:44:50.345Z,76.75
2023-03-04T21:47:19.110Z,76.17
2023-03-04T21:49:46.736Z,76.84
2023-03-04T21:52:15.708Z,76.54
2023-03-04T21:54:43.284Z,76.04
2023-03-04T21:57:11.308Z,76.86
2023-03-04T21:59:39.259Z,78.64
2023-03-04T22:02:07.588Z,77.12
2023-03-04T22:04:35.505Z,76.66
2023-03-04T22:07:03.106Z,76.68
2023-03-04T22:09:33.056Z,76.54
2023-03-04T22:12:00.618Z,77.19
2023-03-04T22:14:29.425Z,76.88
2023-03-04T22:16:57.229Z,75.95
2023-03-04T22:19:26.462Z,75.20
2023-03-04T22:21:55.233Z,75.66
2023-03-04T22:24:23.600Z,76.44
2023-03-04T22:26:52.642Z,75.85
2023-03-04T22:29:20.173Z,77.06
2023-03-04T22:31:47.987Z,78.09
2023-03-04T22:34:16.697Z,78.61
2023-03-04T22:36:46.444Z,76.88
2023-03-04T22:39:19.044Z,76.85
2023-03-04T22:41:46.881Z,76.91
2023-03-04T22:44:15.782Z,76.21
2023-03-04T22:46:43.809Z,77.21
2023-03-04T22:49:13.721Z,77.64
2023-03-04T22:51:42.870Z,78.46
2023-03-04T22:54:12.536Z,79.14
2023-03-04T22:56:40.191Z,78.36
2023-03-04T22:59:07.728Z,78.01
2023-03-04T23:01:36.728Z,77.86
2023-03-04T23:04:04.338Z,77.79
2023-03-04T23:06:31.980Z,78.48
2023-03-04T23:09:00.185Z,79.34
2023-03-04T23:11:30.083Z,78.76
2023-03-04T23:13:59.029Z,77.63
2023-03-04T23:16:28.409Z,77.92
2023-03-04T23:18:59.419Z,78.05
2023-03-04T23:21:28.568Z,77.59
2023-03-04T23:23:56.282Z,78.31
2023-03-04T23:26:26.758Z,78.73
2023-03-04T23:28:56.819Z,79.31
2023-03-04T23:31:25.518Z,79.30
2023-03-04T23:33:57.249Z,79.43
2023-03-04T23:36:29.646Z,80.73
2023-03-04T23:38:57.751Z,81.76
2023-03-04T23:41:28.077Z,82.26
2023-03-04T23:43:56.942Z,80.92
2023-03-04T23:46:25.490Z,81.67
2023-03-04T23:48:53.999Z,82.01
2023-03-04T23:51:23.083Z,82.28
2023-03-04T23:53:52.417Z,81.22
2023-03-04T23:56:22.506Z,82.67
2023-03-04T23:58:50.396Z,83.45
